createdAt,value
2018-07-24T00:00:36.928Z,24.85
2018-07-24T00:01:17.467Z,24.88
2018-07-24T00:01:57.984Z,24.93
2018-07-24T00:02:38.508Z,24.95
2018-07-24T00:03:19.037Z,24.9
2018-07-24T00:03:59.575Z,24.9
2018-07-24T00:04:40.094Z,24.98
2018-07-24T00:05:20.632Z,24.95
2018-07-24T00:06:01.155Z,24.93
2018-07-24T00:06:41.663Z,24.91
2018-07-24T00:07:22.177Z,24.88
2018-07-24T00:08:02.713Z,24.9
2018-07-24T00:08:43.238Z,24.83
2018-07-24T00:09:23.787Z,24.8
2018-07-24T00:10:04.314Z,24.78
2018-07-24T00:10:44.831Z,24.77
2018-07-24T00:11:25.349Z,24.71
2018-07-24T00:12:05.869Z,24.87
2018-07-24T00:12:46.405Z,24.69
2018-07-24T00:13:26.932Z,24.73
2018-07-24T00:14:07.444Z,24.78
2018-07-24T00:14:47.968Z,24.78
2018-07-24T00:15:28.489Z,24.88
2018-07-24T00:16:09.035Z,24.81
2018-07-24T00:16:49.517Z,24.77
2018-07-24T00:17:30.054Z,24.84
2018-07-24T00:18:10.553Z,24.8
2018-07-24T00:18:51.068Z,24.71
2018-07-24T00:19:31.585Z,24.83
2018-07-24T00:20:12.107Z,24.78
2018-07-24T00:20:52.615Z,24.83
2018-07-24T00:21:33.146Z,24.77
2018-07-24T00:22:13.635Z,24.77
2018-07-24T00:22:54.140Z,24.78
2018-07-24T00:23:34.685Z,24.69
2018-07-24T00:24:15.104Z,24.71
2018-07-24T00:24:55.607Z,24.81
2018-07-24T00:25:36.118Z,24.77
2018-07-24T00:26:16.640Z,24.78
2018-07-24T00:26:57.156Z,24.81
2018-07-24T00:27:37.675Z,24.78
2018-07-24T00:28:18.195Z,24.8
2018-07-24T00:28:58.791Z,24.77
2018-07-24T00:29:39.300Z,24.76
2018-07-24T00:30:19.809Z,24.78
2018-07-24T00:31:00.316Z,24.68
2018-07-24T00:31:40.840Z,24.71
2018-07-24T00:32:21.353Z,24.71
2018-07-24T00:33:01.867Z,24.77
2018-07-24T00:33:42.375Z,24.73
2018-07-24T00:34:22.899Z,24.8
2018-07-24T00:35:03.428Z,24.83
2018-07-24T00:35:43.942Z,24.76
2018-07-24T00:36:24.480Z,24.73
2018-07-24T00:37:04.998Z,24.78
2018-07-24T00:37:45.529Z,24.73
2018-07-24T00:38:26.039Z,24.8
2018-07-24T00:39:06.725Z,24.78
2018-07-24T00:39:47.245Z,24.77
2018-07-24T00:40:27.756Z,24.68
2018-07-24T00:41:08.274Z,24.68
2018-07-24T00:41:48.796Z,24.65
2018-07-24T00:42:29.311Z,24.62
2018-07-24T00:43:09.828Z,24.71
2018-07-24T00:43:50.355Z,24.67
2018-07-24T00:44:30.847Z,24.67
2018-07-24T00:45:11.365Z,24.67
2018-07-24T00:45:51.842Z,24.64
2018-07-24T00:46:32.377Z,24.61
2018-07-24T00:47:12.889Z,24.62
2018-07-24T00:47:53.412Z,24.61
2018-07-24T00:48:33.944Z,24.61
2018-07-24T00:49:14.466Z,24.49
2018-07-24T00:49:54.984Z,24.6
2018-07-24T00:50:35.537Z,24.6
2018-07-24T00:51:16.034Z,24.64
2018-07-24T00:51:56.557Z,24.62
2018-07-24T00:52:37.106Z,24.64
2018-07-24T00:53:17.612Z,24.64
2018-07-24T00:53:58.140Z,24.64
2018-07-24T00:54:38.650Z,24.6
2018-07-24T00:55:19.173Z,24.55
2018-07-24T00:55:59.698Z,24.69
2018-07-24T00:56:40.227Z,24.6
2018-07-24T00:57:20.763Z,24.58
2018-07-24T00:58:01.287Z,24.6
2018-07-24T00:58:41.783Z,24.64
2018-07-24T00:59:22.306Z,24.57
2018-07-24T01:00:02.846Z,24.49
2018-07-24T01:00:43.362Z,24.53
2018-07-24T01:01:23.869Z,24.6
2018-07-24T01:02:04.399Z,24.55
2018-07-24T01:02:44.929Z,24.58
2018-07-24T01:03:25.425Z,24.46
2018-07-24T01:04:06.012Z,24.43
2018-07-24T01:04:46.509Z,24.5
2018-07-24T01:05:26.989Z,24.42
2018-07-24T01:06:07.525Z,24.45
2018-07-24T01:06:48.057Z,24.35
2018-07-24T01:07:28.567Z,24.46
2018-07-24T01:08:09.086Z,24.53
2018-07-24T01:08:49.613Z,24.57
2018-07-24T01:09:30.167Z,24.49
2018-07-24T01:10:10.698Z,24.5
2018-07-24T01:10:51.220Z,24.52
2018-07-24T01:11:31.736Z,24.58
2018-07-24T01:12:12.268Z,24.53
2018-07-24T01:12:52.802Z,24.47
2018-07-24T01:13:33.307Z,24.47
2018-07-24T01:14:13.827Z,24.47
2018-07-24T01:14:54.364Z,24.46
2018-07-24T01:15:34.883Z,24.45
2018-07-24T01:16:15.387Z,24.39
2018-07-24T01:16:55.917Z,24.35
2018-07-24T01:17:36.429Z,24.35
2018-07-24T01:18:16.957Z,24.39
2018-07-24T01:18:57.477Z,24.39
2018-07-24T01:19:37.979Z,24.25
2018-07-24T01:20:18.499Z,24.28
2018-07-24T01:20:59.024Z,24.32
2018-07-24T01:21:39.543Z,24.45
2018-07-24T01:22:20.064Z,24.52
2018-07-24T01:23:00.593Z,24.49
2018-07-24T01:23:41.126Z,24.45
2018-07-24T01:24:21.641Z,24.47
2018-07-24T01:25:02.159Z,24.39
2018-07-24T01:25:42.708Z,24.42
2018-07-24T01:26:23.224Z,24.47
2018-07-24T01:27:03.754Z,24.45
2018-07-24T01:27:44.274Z,24.52
2018-07-24T01:28:24.822Z,24.43
2018-07-24T01:29:05.329Z,24.39
2018-07-24T01:29:45.881Z,24.39
2018-07-24T01:30:26.400Z,24.31
2018-07-24T01:31:06.974Z,24.35
2018-07-24T01:31:47.456Z,24.24
2018-07-24T01:32:27.992Z,24.27
2018-07-24T01:33:08.510Z,24.27
2018-07-24T01:33:49.045Z,24.3
2018-07-24T01:34:29.559Z,24.27
2018-07-24T01:35:10.084Z,24.3
2018-07-24T01:35:50.607Z,24.28
2018-07-24T01:36:31.109Z,24.28
2018-07-24T01:37:11.636Z,24.31
2018-07-24T01:37:52.155Z,24.34
2018-07-24T01:38:32.668Z,24.35
2018-07-24T01:39:13.201Z,24.43
2018-07-24T01:39:53.722Z,24.39
2018-07-24T01:40:34.236Z,24.35
2018-07-24T01:41:14.761Z,24.32
2018-07-24T01:41:55.284Z,24.25
2018-07-24T01:42:35.806Z,24.3
2018-07-24T01:43:16.336Z,24.2
2018-07-24T01:43:56.881Z,24.25
2018-07-24T01:44:37.366Z,24.31
2018-07-24T01:45:17.890Z,24.34
2018-07-24T01:45:58.408Z,24.28
2018-07-24T01:46:38.921Z,24.31
2018-07-24T01:47:19.439Z,24.25
2018-07-24T01:47:59.963Z,24.31
2018-07-24T01:48:40.488Z,24.28
2018-07-24T01:49:21.013Z,24.24
2018-07-24T01:50:01.550Z,24.18
2018-07-24T01:50:42.067Z,24.24
2018-07-24T01:51:22.566Z,24.15
2018-07-24T01:52:03.077Z,24.22
2018-07-24T01:52:43.577Z,24.16
2018-07-24T01:53:24.062Z,24.16
2018-07-24T01:54:04.559Z,24.15
2018-07-24T01:54:45.078Z,24.15
2018-07-24T01:55:25.601Z,24.27
2018-07-24T01:56:06.123Z,24.28
2018-07-24T01:56:46.643Z,24.22
2018-07-24T01:57:27.158Z,24.21
2018-07-24T01:58:07.683Z,24.27
2018-07-24T01:58:48.195Z,24.22
2018-07-24T01:59:28.720Z,24.24
2018-07-24T02:00:09.254Z,24.27
2018-07-24T02:00:49.775Z,24.09
2018-07-24T02:01:30.299Z,24.18
2018-07-24T02:02:10.820Z,24.16
2018-07-24T02:02:51.344Z,24.22
2018-07-24T02:03:31.867Z,24.21
2018-07-24T02:04:12.397Z,24.28
2018-07-24T02:04:52.918Z,24.25
2018-07-24T02:05:33.420Z,24.24
2018-07-24T02:06:13.952Z,24.22
2018-07-24T02:06:54.475Z,24.22
2018-07-24T02:07:34.990Z,24.22
2018-07-24T02:08:15.516Z,24.27
2018-07-24T02:08:56.040Z,24.16
2018-07-24T02:09:36.568Z,24.25
2018-07-24T02:10:17.071Z,24.1
2018-07-24T02:10:57.608Z,24.13
2018-07-24T02:11:38.126Z,24.12
2018-07-24T02:12:18.644Z,24.12
2018-07-24T02:12:59.183Z,24.27
2018-07-24T02:13:39.707Z,24.27
2018-07-24T02:14:20.240Z,24.12
2018-07-24T02:15:00.749Z,24.25
2018-07-24T02:15:41.288Z,24.27
2018-07-24T02:16:21.808Z,24.25
2018-07-24T02:17:02.335Z,24.15
2018-07-24T02:17:42.863Z,24.28
2018-07-24T02:18:23.383Z,24.15
2018-07-24T02:19:03.914Z,24.15
2018-07-24T02:19:44.435Z,24.12
2018-07-24T02:20:24.961Z,24.09
2018-07-24T02:21:05.494Z,24.15
2018-07-24T02:21:46.032Z,24.13
2018-07-24T02:22:26.562Z,24.1
2018-07-24T02:23:07.083Z,24.16
2018-07-24T02:23:47.636Z,24.13
2018-07-24T02:24:28.111Z,24.1
2018-07-24T02:25:08.632Z,24.16
2018-07-24T02:25:49.128Z,24.12
2018-07-24T02:26:29.610Z,24.15
2018-07-24T02:27:10.117Z,24.1
2018-07-24T02:27:50.567Z,24.1
2018-07-24T02:28:31.080Z,24.15
2018-07-24T02:29:11.592Z,24.1
2018-07-24T02:29:52.130Z,24.1
2018-07-24T02:30:32.652Z,24.13
2018-07-24T02:31:13.183Z,24.1
2018-07-24T02:31:53.757Z,24.09
2018-07-24T02:32:34.228Z,24.12
2018-07-24T02:33:14.738Z,24.2
2018-07-24T02:33:55.229Z,24.15
2018-07-24T02:34:35.747Z,24.05
2018-07-24T02:35:16.254Z,24.08
2018-07-24T02:35:56.737Z,24.12
2018-07-24T02:36:37.217Z,24.12
2018-07-24T02:37:17.720Z,24.1
2018-07-24T02:37:58.187Z,24.1
2018-07-24T02:38:38.706Z,24.1
2018-07-24T02:39:19.222Z,24.15
2018-07-24T02:39:59.731Z,24.12
2018-07-24T02:40:40.289Z,24.08
2018-07-24T02:41:20.809Z,24.16
2018-07-24T02:42:01.340Z,24.13
2018-07-24T02:42:41.842Z,24.13
2018-07-24T02:43:22.361Z,24.09
2018-07-24T02:44:02.883Z,24.12
2018-07-24T02:44:43.397Z,24.12
2018-07-24T02:45:23.926Z,24.06
2018-07-24T02:46:04.457Z,24
2018-07-24T02:46:44.932Z,24.05
2018-07-24T02:47:25.421Z,24.09
2018-07-24T02:48:05.945Z,24.08
2018-07-24T02:48:46.476Z,24.06
2018-07-24T02:49:26.964Z,24.09
2018-07-24T02:50:07.504Z,24.02
2018-07-24T02:50:48.003Z,24.02
2018-07-24T02:51:28.490Z,24.06
2018-07-24T02:52:08.983Z,24.13
2018-07-24T02:52:49.481Z,24.06
2018-07-24T02:53:30.000Z,24.05
2018-07-24T02:54:10.462Z,24.05
2018-07-24T02:54:50.993Z,24.08
2018-07-24T02:55:31.494Z,23.98
2018-07-24T02:56:12.004Z,24.05
2018-07-24T02:56:52.513Z,24.06
2018-07-24T02:57:33.014Z,24.2
2018-07-24T02:58:13.510Z,24.06
2018-07-24T02:58:54.033Z,24
2018-07-24T02:59:34.556Z,23.98
2018-07-24T03:00:15.069Z,24
2018-07-24T03:00:55.554Z,23.87
2018-07-24T03:01:36.035Z,23.95
2018-07-24T03:02:16.533Z,24.02
2018-07-24T03:02:57.058Z,24.03
2018-07-24T03:03:37.562Z,24.08
2018-07-24T03:04:18.024Z,23.87
2018-07-24T03:04:58.535Z,23.9
2018-07-24T03:05:39.044Z,23.91
2018-07-24T03:06:19.559Z,23.83
2018-07-24T03:07:00.055Z,23.85
2018-07-24T03:07:40.599Z,23.98
2018-07-24T03:08:21.082Z,24.06
2018-07-24T03:09:01.553Z,24.02
2018-07-24T03:09:42.040Z,23.98
2018-07-24T03:10:22.529Z,23.98
2018-07-24T03:11:03.028Z,23.95
2018-07-24T03:11:43.548Z,24.02
2018-07-24T03:12:24.053Z,23.95
2018-07-24T03:13:04.558Z,23.84
2018-07-24T03:13:45.059Z,23.93
2018-07-24T03:14:25.569Z,23.94
2018-07-24T03:15:06.047Z,23.9
2018-07-24T03:15:46.594Z,23.83
2018-07-24T03:16:27.084Z,23.9
2018-07-24T03:17:07.618Z,23.88
2018-07-24T03:17:48.148Z,23.8
2018-07-24T03:18:28.654Z,23.88
2018-07-24T03:19:09.120Z,23.91
2018-07-24T03:19:49.642Z,23.78
2018-07-24T03:20:30.142Z,23.9
2018-07-24T03:21:10.654Z,23.84
2018-07-24T03:21:51.164Z,23.83
2018-07-24T03:22:31.701Z,23.94
2018-07-24T03:23:12.209Z,23.84
2018-07-24T03:23:52.742Z,23.79
2018-07-24T03:24:33.252Z,23.85
2018-07-24T03:25:13.774Z,23.8
2018-07-24T03:25:54.300Z,23.84
2018-07-24T03:26:34.825Z,23.87
2018-07-24T03:27:15.331Z,23.84
2018-07-24T03:27:55.858Z,23.9
2018-07-24T03:28:36.342Z,23.72
2018-07-24T03:29:16.861Z,23.84
2018-07-24T03:29:57.353Z,23.78
2018-07-24T03:30:37.858Z,23.72
2018-07-24T03:31:18.351Z,23.75
2018-07-24T03:31:58.842Z,23.8
2018-07-24T03:32:39.382Z,23.9
2018-07-24T03:33:19.832Z,23.87
2018-07-24T03:34:00.373Z,23.85
2018-07-24T03:34:40.872Z,23.91
2018-07-24T03:35:21.383Z,23.75
2018-07-24T03:36:01.845Z,23.85
2018-07-24T03:36:42.327Z,23.8
2018-07-24T03:37:22.848Z,23.78
2018-07-24T03:38:03.349Z,23.79
2018-07-24T03:38:43.836Z,23.72
2018-07-24T03:39:24.331Z,23.75
2018-07-24T03:40:04.818Z,23.72
2018-07-24T03:40:45.333Z,23.78
2018-07-24T03:41:25.861Z,23.73
2018-07-24T03:42:06.350Z,23.76
2018-07-24T03:42:46.869Z,23.8
2018-07-24T03:43:27.378Z,23.84
2018-07-24T03:44:07.852Z,23.88
2018-07-24T03:44:48.348Z,23.85
2018-07-24T03:45:28.839Z,23.76
2018-07-24T03:46:09.352Z,23.76
2018-07-24T03:46:49.861Z,23.85
2018-07-24T03:47:30.383Z,23.76
2018-07-24T03:48:10.925Z,23.87
2018-07-24T03:48:51.362Z,23.87
2018-07-24T03:49:31.831Z,23.83
2018-07-24T03:50:12.321Z,23.76
2018-07-24T03:50:52.814Z,23.83
2018-07-24T03:51:33.321Z,23.72
2018-07-24T03:52:13.813Z,23.8
2018-07-24T03:52:54.297Z,23.84
2018-07-24T03:53:34.832Z,23.76
2018-07-24T03:54:15.308Z,23.72
2018-07-24T03:54:55.853Z,23.69
2018-07-24T03:55:36.343Z,23.72
2018-07-24T03:56:16.854Z,23.68
2018-07-24T03:56:57.329Z,23.75
2018-07-24T03:57:37.837Z,23.75
2018-07-24T03:58:18.310Z,23.79
2018-07-24T03:58:58.816Z,23.8
2018-07-24T03:59:39.361Z,23.76
2018-07-24T04:00:19.846Z,23.72
2018-07-24T04:01:00.333Z,23.72
2018-07-24T04:01:40.815Z,23.79
2018-07-24T04:02:21.389Z,23.79
2018-07-24T04:03:01.781Z,23.83
2018-07-24T04:03:42.279Z,23.73
2018-07-24T04:04:22.753Z,23.72
2018-07-24T04:05:03.248Z,23.78
2018-07-24T04:05:43.759Z,23.8
2018-07-24T04:06:24.270Z,23.7
2018-07-24T04:07:04.783Z,23.75
2018-07-24T04:07:45.290Z,23.73
2018-07-24T04:08:25.753Z,23.76
2018-07-24T04:09:06.257Z,23.76
2018-07-24T04:09:46.739Z,23.8
2018-07-24T04:10:27.285Z,23.88
2018-07-24T04:11:07.755Z,23.85
2018-07-24T04:11:48.237Z,23.79
2018-07-24T04:12:28.801Z,23.84
2018-07-24T04:13:09.242Z,23.85
2018-07-24T04:13:49.777Z,23.87
2018-07-24T04:14:30.279Z,23.83
2018-07-24T04:15:10.771Z,23.84
2018-07-24T04:15:51.275Z,23.84
2018-07-24T04:16:31.748Z,23.87
2018-07-24T04:17:12.217Z,23.9
2018-07-24T04:17:52.703Z,23.87
2018-07-24T04:18:33.245Z,23.88
2018-07-24T04:19:13.743Z,23.88
2018-07-24T04:19:54.293Z,23.9
2018-07-24T04:20:34.794Z,23.87
2018-07-24T04:21:15.303Z,23.85
2018-07-24T04:21:55.786Z,23.87
2018-07-24T04:22:36.323Z,23.8
2018-07-24T04:23:16.857Z,23.87
2018-07-24T04:23:57.341Z,23.84
2018-07-24T04:24:37.867Z,23.85
2018-07-24T04:25:18.370Z,23.98
2018-07-24T04:25:58.826Z,24.06
2018-07-24T04:26:39.366Z,24.02
2018-07-24T04:27:19.854Z,24.06
2018-07-24T04:28:00.355Z,24.08
2018-07-24T04:28:40.862Z,24.06
2018-07-24T04:29:21.384Z,24.09
2018-07-24T04:30:01.857Z,24.09
2018-07-24T04:30:42.401Z,24.13
2018-07-24T04:31:22.871Z,24.12
2018-07-24T04:32:03.375Z,24.13
2018-07-24T04:32:43.926Z,24.15
2018-07-24T04:33:24.382Z,24.15
2018-07-24T04:34:04.881Z,24.28
2018-07-24T04:34:45.363Z,24.15
2018-07-24T04:35:25.881Z,24.25
2018-07-24T04:36:06.447Z,24.22
2018-07-24T04:36:47.010Z,24.31
2018-07-24T04:37:27.507Z,24.4
2018-07-24T04:38:08.024Z,24.45
2018-07-24T04:38:48.572Z,24.49
2018-07-24T04:39:29.066Z,24.57
2018-07-24T04:40:09.547Z,24.65
2018-07-24T04:40:50.073Z,24.69
2018-07-24T04:41:30.617Z,24.52
2018-07-24T04:42:11.152Z,24.67
2018-07-24T04:42:51.607Z,24.52
2018-07-24T04:43:32.179Z,24.65
2018-07-24T04:44:12.596Z,24.77
2018-07-24T04:44:53.099Z,24.69
2018-07-24T04:45:33.592Z,24.61
2018-07-24T04:46:14.155Z,24.58
2018-07-24T04:46:54.597Z,24.52
2018-07-24T04:47:35.084Z,24.53
2018-07-24T04:48:15.604Z,24.47
2018-07-24T04:48:56.098Z,24.49
2018-07-24T04:49:36.589Z,24.67
2018-07-24T04:50:17.101Z,24.65
2018-07-24T04:50:57.591Z,24.5
2018-07-24T04:51:38.119Z,24.52
2018-07-24T04:52:18.628Z,24.69
2018-07-24T04:52:59.093Z,24.67
2018-07-24T04:53:39.631Z,24.67
2018-07-24T04:54:20.089Z,24.65
2018-07-24T04:55:00.580Z,24.71
2018-07-24T04:55:41.063Z,24.62
2018-07-24T04:56:21.588Z,24.65
2018-07-24T04:57:02.055Z,24.76
2018-07-24T04:57:42.602Z,24.9
2018-07-24T04:58:23.111Z,25.08
2018-07-24T04:59:03.670Z,25.08
2018-07-24T04:59:44.131Z,25.09
2018-07-24T05:00:24.577Z,24.9
2018-07-24T05:01:05.159Z,24.85
2018-07-24T05:01:45.670Z,24.9
2018-07-24T05:02:26.116Z,24.85
2018-07-24T05:03:06.789Z,24.85
2018-07-24T05:03:47.213Z,24.87
2018-07-24T05:04:27.750Z,24.81
2018-07-24T05:05:08.314Z,24.84
2018-07-24T05:05:48.761Z,24.9
2018-07-24T05:06:29.245Z,24.9
2018-07-24T05:07:09.736Z,24.88
2018-07-24T05:07:50.263Z,24.85
2018-07-24T05:08:30.710Z,24.87
2018-07-24T05:09:11.236Z,24.9
2018-07-24T05:09:51.729Z,24.85
2018-07-24T05:10:32.231Z,24.9
2018-07-24T05:11:12.728Z,24.99
2018-07-24T05:11:53.210Z,24.9
2018-07-24T05:13:41.213Z,25.09
2018-07-24T05:14:21.713Z,25.14
2018-07-24T05:15:02.263Z,25.08
2018-07-24T05:15:42.793Z,24.99
2018-07-24T05:16:23.394Z,24.96
2018-07-24T05:17:03.936Z,25.02
2018-07-24T05:17:44.443Z,24.9
2018-07-24T05:18:24.951Z,24.96
2018-07-24T05:19:05.481Z,25.1
2018-07-24T05:19:46.000Z,24.98
2018-07-24T05:20:26.546Z,25.02
2018-07-24T05:21:07.063Z,25.08
2018-07-24T05:21:47.608Z,24.99
2018-07-24T05:22:28.083Z,24.95
2018-07-24T05:23:08.601Z,25
2018-07-24T05:23:49.123Z,24.91
2018-07-24T05:24:29.574Z,24.96
2018-07-24T05:25:10.093Z,24.98
2018-07-24T05:25:50.613Z,25.08
2018-07-24T05:26:31.146Z,25.1
2018-07-24T05:27:11.656Z,24.99
2018-07-24T05:27:52.237Z,25.14
2018-07-24T05:28:32.775Z,25
2018-07-24T05:29:13.221Z,25
2018-07-24T05:29:53.708Z,24.96
2018-07-24T05:30:34.187Z,25
2018-07-24T05:31:14.692Z,24.88
2018-07-24T05:31:55.176Z,24.87
2018-07-24T05:32:35.739Z,24.98
2018-07-24T05:33:16.377Z,25
2018-07-24T05:33:56.692Z,25.06
2018-07-24T05:34:37.179Z,25.13
2018-07-24T05:35:17.693Z,25.02
2018-07-24T05:35:58.202Z,25.03
2018-07-24T05:36:38.642Z,24.91
2018-07-24T05:37:19.164Z,24.9
2018-07-24T05:37:59.682Z,24.9
2018-07-24T05:38:40.353Z,24.96
2018-07-24T05:39:20.832Z,24.96
2018-07-24T05:40:01.279Z,25.05
2018-07-24T05:40:41.760Z,25
2018-07-24T05:41:22.296Z,24.96
2018-07-24T05:42:02.828Z,24.95
2018-07-24T05:42:43.360Z,24.98
2018-07-24T05:43:23.847Z,25.02
2018-07-24T05:44:04.361Z,24.98
2018-07-24T05:44:44.860Z,25.03
2018-07-24T05:45:25.349Z,24.99
2018-07-24T05:46:05.898Z,25
2018-07-24T05:46:46.387Z,25.13
2018-07-24T05:47:26.845Z,25.1
2018-07-24T05:48:07.345Z,25.06
2018-07-24T05:48:47.908Z,25.21
2018-07-24T05:49:28.380Z,25.14
2018-07-24T05:50:08.829Z,25.25
2018-07-24T05:50:49.389Z,25.25
2018-07-24T05:51:29.876Z,25.15
2018-07-24T05:52:10.355Z,25.25
2018-07-24T05:52:50.890Z,25.4
2018-07-24T05:53:31.394Z,25.33
2018-07-24T05:54:11.933Z,25.38
2018-07-24T05:54:52.406Z,25.4
2018-07-24T05:55:32.911Z,25.45
2018-07-24T05:56:13.421Z,25.4
2018-07-24T05:56:53.893Z,25.43
2018-07-24T05:57:34.362Z,25.42
2018-07-24T05:58:14.877Z,25.55
2018-07-24T05:58:55.401Z,25.64
2018-07-24T05:59:35.906Z,25.79
2018-07-24T06:00:16.387Z,25.97
2018-07-24T06:00:56.880Z,25.99
2018-07-24T06:01:37.383Z,26.1
2018-07-24T06:02:17.966Z,26.39
2018-07-24T06:02:58.400Z,26.57
2018-07-24T06:03:38.861Z,26.6
2018-07-24T06:04:19.333Z,26.73
2018-07-24T06:04:59.825Z,26.77
2018-07-24T06:05:40.315Z,26.88
2018-07-24T06:06:20.812Z,26.94
2018-07-24T06:07:01.333Z,27.07
2018-07-24T06:07:41.817Z,27.09
2018-07-24T06:08:22.311Z,27.17
2018-07-24T06:09:02.838Z,27.4
2018-07-24T06:09:43.373Z,27.41
2018-07-24T06:10:23.867Z,27.37
2018-07-24T06:11:04.357Z,27.41
2018-07-24T06:11:44.893Z,27.47
2018-07-24T06:12:25.333Z,27.7
2018-07-24T06:13:06.151Z,27.75
2018-07-24T06:13:46.781Z,27.72
2018-07-24T06:14:27.407Z,27.79
2018-07-24T06:15:07.794Z,27.82
2018-07-24T06:15:48.295Z,27.87
2018-07-24T06:16:28.797Z,27.94
2018-07-24T06:17:09.371Z,28.06
2018-07-24T06:17:49.854Z,28.02
2018-07-24T06:18:30.373Z,28.09
2018-07-24T06:19:10.872Z,28.11
2018-07-24T06:19:51.460Z,28.31
2018-07-24T06:20:31.894Z,28.39
2018-07-24T06:21:12.448Z,28.41
2018-07-24T06:21:53.051Z,28.34
2018-07-24T06:22:33.588Z,28.31
2018-07-24T06:23:14.059Z,28.31
2018-07-24T06:23:54.610Z,28.34
2018-07-24T06:24:35.090Z,28.27
2018-07-24T06:25:15.638Z,28.25
2018-07-24T06:25:56.149Z,28.15
2018-07-24T06:26:36.659Z,28.18
2018-07-24T06:27:17.221Z,28.21
2018-07-24T06:27:57.793Z,28.25
2018-07-24T06:28:38.245Z,28.24
2018-07-24T06:29:18.772Z,28.33
2018-07-24T06:29:59.282Z,28.31
2018-07-24T06:30:39.798Z,28.33
2018-07-24T06:31:20.344Z,28.17
2018-07-24T06:32:00.778Z,28.22
2018-07-24T06:32:41.319Z,28.27
2018-07-24T06:33:21.977Z,28.25
2018-07-24T06:34:02.441Z,28.3
2018-07-24T06:34:42.887Z,28.37
2018-07-24T06:35:23.385Z,28.37
2018-07-24T06:36:03.959Z,28.24
2018-07-24T06:36:44.527Z,28.4
2018-07-24T06:37:25.074Z,28.4
2018-07-24T06:38:05.543Z,28.31
2018-07-24T06:38:46.070Z,28.25
2018-07-24T06:39:26.495Z,28.24
2018-07-24T06:40:07.043Z,28.31
2018-07-24T06:40:47.511Z,28.27
2018-07-24T06:41:28.147Z,28.29
2018-07-24T06:42:08.623Z,28.31
2018-07-24T06:42:49.191Z,28.29
2018-07-24T06:43:29.789Z,28.33
2018-07-24T06:44:10.319Z,28.21
2018-07-24T06:44:50.794Z,28.3
2018-07-24T06:45:31.297Z,28.29
2018-07-24T06:46:11.893Z,28.27
2018-07-24T06:46:52.437Z,28.24
2018-07-24T06:47:32.975Z,28.34
2018-07-24T06:48:13.495Z,28.33
2018-07-24T06:48:54.094Z,28.41
2018-07-24T06:49:34.522Z,28.44
2018-07-24T06:50:15.127Z,28.3
2018-07-24T06:50:55.668Z,28.46
2018-07-24T06:51:36.393Z,28.56
2018-07-24T06:52:16.820Z,28.52
2018-07-24T06:52:57.301Z,28.39
2018-07-24T06:53:37.789Z,28.4
2018-07-24T06:54:18.359Z,28.54
2018-07-24T06:54:58.809Z,28.56
2018-07-24T06:55:39.304Z,28.55
2018-07-24T06:56:19.811Z,28.66
2018-07-24T06:57:00.344Z,28.55
2018-07-24T06:57:40.821Z,28.73
2018-07-24T06:58:21.676Z,28.76
2018-07-24T06:59:02.156Z,28.81
2018-07-24T06:59:42.653Z,28.66
2018-07-24T07:00:23.162Z,28.62
2018-07-24T07:01:03.696Z,28.71
2018-07-24T07:01:44.207Z,28.76
2018-07-24T07:02:24.655Z,28.89
2018-07-24T07:03:05.152Z,28.86
2018-07-24T07:03:45.644Z,28.81
2018-07-24T07:04:26.373Z,28.83
2018-07-24T07:05:06.857Z,28.92
2018-07-24T07:05:47.357Z,28.9
2018-07-24T07:06:27.857Z,29.02
2018-07-24T07:07:08.341Z,29.08
2018-07-24T07:07:48.835Z,29.16
2018-07-24T07:08:29.435Z,29.16
2018-07-24T07:09:09.840Z,29.09
2018-07-24T07:09:50.398Z,28.85
2018-07-24T07:10:30.827Z,28.9
2018-07-24T07:11:11.332Z,28.98
2018-07-24T07:11:51.809Z,29.06
2018-07-24T07:12:32.389Z,29.16
2018-07-24T07:13:13.039Z,29.12
2018-07-24T07:13:53.553Z,29.15
2018-07-24T07:14:33.990Z,29.08
2018-07-24T07:15:14.495Z,29.14
2018-07-24T07:15:55.003Z,29.11
2018-07-24T07:16:35.961Z,29.11
2018-07-24T07:17:16.098Z,29.28
2018-07-24T07:17:56.547Z,29.41
2018-07-24T07:18:37.107Z,29.31
2018-07-24T07:19:17.562Z,29.19
2018-07-24T07:19:58.135Z,29.31
2018-07-24T07:20:38.665Z,29.36
2018-07-24T07:21:19.147Z,29.39
2018-07-24T07:21:59.634Z,29.55
2018-07-24T07:22:40.121Z,29.61
2018-07-24T07:23:20.682Z,29.37
2018-07-24T07:24:01.233Z,29.48
2018-07-24T07:24:42.647Z,29.52
2018-07-24T07:25:23.149Z,29.41
2018-07-24T07:26:03.560Z,29.48
2018-07-24T07:26:44.130Z,29.57
2018-07-24T07:27:24.857Z,29.39
2018-07-24T07:28:05.492Z,29.48
2018-07-24T07:28:45.994Z,29.42
2018-07-24T07:29:26.400Z,29.52
2018-07-24T07:30:06.987Z,29.49
2018-07-24T07:30:47.428Z,29.58
2018-07-24T07:31:27.963Z,29.53
2018-07-24T07:32:08.524Z,29.57
2018-07-24T07:32:49.056Z,29.6
2018-07-24T07:33:29.490Z,29.6
2018-07-24T07:34:10.019Z,29.6
2018-07-24T07:34:50.503Z,29.58
2018-07-24T07:35:30.926Z,29.58
2018-07-24T07:36:11.482Z,29.68
2018-07-24T07:36:51.931Z,29.64
2018-07-24T07:37:32.449Z,29.58
2018-07-24T07:38:12.968Z,29.58
2018-07-24T07:38:53.496Z,29.6
2018-07-24T07:39:33.927Z,29.55
2018-07-24T07:40:14.404Z,29.46
2018-07-24T07:40:54.914Z,29.73
2018-07-24T07:41:35.442Z,29.64
2018-07-24T07:42:15.944Z,29.61
2018-07-24T07:42:56.411Z,29.73
2018-07-24T07:43:36.963Z,29.74
2018-07-24T07:44:17.493Z,29.78
2018-07-24T07:44:57.972Z,29.58
2018-07-24T07:45:38.435Z,29.63
2018-07-24T07:46:19.001Z,29.64
2018-07-24T07:46:59.557Z,29.76
2018-07-24T07:47:40.059Z,29.64
2018-07-24T07:48:20.559Z,29.74
2018-07-24T07:49:01.231Z,29.71
2018-07-24T07:49:41.701Z,29.67
2018-07-24T07:50:22.240Z,29.7
2018-07-24T07:51:02.739Z,29.7
2018-07-24T07:51:43.237Z,29.65
2018-07-24T07:52:23.753Z,29.76
2018-07-24T07:53:04.241Z,29.78
2018-07-24T07:53:44.750Z,29.68
2018-07-24T07:54:25.447Z,29.61
2018-07-24T07:55:06.039Z,29.73
2018-07-24T07:55:46.601Z,29.65
2018-07-24T07:56:27.095Z,29.7
2018-07-24T07:57:07.614Z,29.63
2018-07-24T07:57:48.247Z,29.46
2018-07-24T07:58:28.767Z,29.46
2018-07-24T07:59:09.295Z,29.52
2018-07-24T07:59:49.784Z,29.52
2018-07-24T08:00:30.287Z,29.51
2018-07-24T08:01:10.821Z,29.63
2018-07-24T08:01:51.377Z,29.58
2018-07-24T08:02:31.855Z,29.79
2018-07-24T08:03:12.332Z,29.68
2018-07-24T08:03:52.837Z,29.7
2018-07-24T08:04:33.345Z,29.83
2018-07-24T08:05:13.825Z,29.71
2018-07-24T08:05:54.329Z,29.76
2018-07-24T08:06:34.847Z,29.8
2018-07-24T08:07:15.383Z,29.79
2018-07-24T08:07:55.885Z,29.82
2018-07-24T08:08:36.445Z,29.82
2018-07-24T08:09:16.940Z,29.79
2018-07-24T08:09:57.415Z,29.8
2018-07-24T08:10:37.975Z,29.82
2018-07-24T08:11:18.424Z,29.79
2018-07-24T08:11:58.982Z,29.8
2018-07-24T08:12:39.471Z,29.78
2018-07-24T08:13:19.991Z,29.85
2018-07-24T08:14:00.538Z,29.79
2018-07-24T08:14:40.893Z,29.82
2018-07-24T08:15:21.445Z,29.85
2018-07-24T08:16:02.022Z,29.9
2018-07-24T08:16:42.581Z,29.87
2018-07-24T08:17:23.071Z,29.89
2018-07-24T08:18:03.567Z,29.92
2018-07-24T08:18:44.067Z,29.95
2018-07-24T08:19:24.532Z,29.97
2018-07-24T08:20:05.030Z,29.86
2018-07-24T08:20:45.553Z,29.87
2018-07-24T08:21:26.047Z,29.92
2018-07-24T08:22:06.543Z,29.86
2018-07-24T08:22:47.023Z,29.89
2018-07-24T08:23:27.534Z,29.82
2018-07-24T08:24:08.026Z,29.7
2018-07-24T08:24:48.543Z,29.61
2018-07-24T08:25:29.028Z,29.71
2018-07-24T08:26:09.515Z,29.76
2018-07-24T08:26:50.000Z,29.65
2018-07-24T08:27:30.503Z,29.67
2018-07-24T08:28:11.028Z,29.48
2018-07-24T08:28:51.512Z,29.39
2018-07-24T08:29:32.010Z,29.34
2018-07-24T08:30:12.513Z,29.3
2018-07-24T08:30:53.040Z,29.46
2018-07-24T08:31:33.540Z,29.41
2018-07-24T08:32:14.000Z,29.39
2018-07-24T08:32:54.518Z,29.34
2018-07-24T08:33:35.140Z,29.45
2018-07-24T08:34:15.694Z,29.52
2018-07-24T08:34:56.026Z,29.39
2018-07-24T08:35:36.597Z,29.42
2018-07-24T08:36:17.093Z,29.39
2018-07-24T08:36:57.575Z,29.23
2018-07-24T08:37:38.072Z,29.37
2018-07-24T08:38:18.585Z,29.36
2018-07-24T08:38:59.145Z,29.31
2018-07-24T08:39:39.662Z,29.39
2018-07-24T08:40:20.158Z,29.39
2018-07-24T08:41:00.675Z,29.27
2018-07-24T08:41:41.109Z,29.15
2018-07-24T08:42:21.701Z,29.23
2018-07-24T08:43:02.166Z,29.34
2018-07-24T08:43:42.696Z,29.41
2018-07-24T08:44:23.166Z,29.39
2018-07-24T08:45:03.690Z,29.6
2018-07-24T08:45:44.208Z,29.55